M I D A S
Marine Information and Data Acquisition System
Tripno 2231 of the Zeeleeuw from 2011-09-19 08:00:00 to 2011-09-19 17:00:00
Back to CruiseResearch ActivitiesStationsMapUnderway DataData graphs

EquipmentUnitsComment
TimeDGPSUTC
LatitudeDGPSDM.mWGS84
LongitudeDGPSDM.mWGS84
HeadingGyrodeg 
SOGDGPSknotsSpeed over ground
COGDGPSdegCourse over ground
DepthEcho soundermeters200 kHz
Missing or incorrect values are displayed as -999
Navigation data collected by the RV Zeeleeuw from 2011-09-19 08:00:00 to 2011-09-19 17:00:00
Time Latitude Longitude Heading SOG COG Depth
2011-09-19 08:02:10 51°18.028 2°51.33 319.3 12.3 319 -999
2011-09-19 08:04:10 51°18.31 2°50.988 326.6 8.5 326 -999
2011-09-19 08:06:10 51°18.437 2°50.881 6.5 2.89 9 -999
2011-09-19 08:08:10 51°18.519 2°50.948 22.6 2.6 26 -999
2011-09-19 08:10:10 51°18.529 2°50.97 27.1 0.29 128 -999
2011-09-19 08:12:10 51°18.52 2°50.984 32 0.2 160 -999
2011-09-19 08:14:10 51°18.511 2°50.996 32.8 0.4 144 -999
2011-09-19 08:16:10 51°18.501 2°51.009 33.8 0.4 133 -999
2011-09-19 08:18:10 51°18.495 2°51.022 27.3 0.29 124 -999
2011-09-19 08:20:10 51°18.486 2°51.034 33.2 0.29 144 -999
2011-09-19 08:22:10 51°18.477 2°51.045 25.8 0.29 130 -999
2011-09-19 08:24:10 51°18.469 2°51.055 23.3 0.2 134 -999
2011-09-19 08:26:10 51°18.458 2°51.065 31.6 0.5 142 -999
2011-09-19 08:28:10 51°18.446 2°51.076 32.6 0.5 150 -999
2011-09-19 08:30:10 51°18.435 2°51.085 26.1 0.4 151 -999
2011-09-19 08:32:10 51°18.433 2°51.1 26.8 1 42 -999
2011-09-19 08:34:10 51°18.536 2°51.443 72.2 10.9 74 -999
2011-09-19 08:36:10 51°18.655 2°52.046 75.5 12 75 -999
2011-09-19 08:38:10 51°18.788 2°52.638 69.2 11.9 69 -999
2011-09-19 08:40:10 51°18.913 2°53.241 73.2 11.69 67 -999
2011-09-19 08:42:10 51°19.037 2°53.824 71.2 11.69 71 -999
2011-09-19 08:44:10 51°19.163 2°54.411 70.2 11.69 73 -999
2011-09-19 08:46:10 51°19.284 2°55.007 71.2 11.69 73 -999
2011-09-19 08:48:10 51°19.406 2°55.596 71.2 11.59 72 -999
2011-09-19 08:50:10 51°19.527 2°56.177 72.2 11.8 71 -999
2011-09-19 08:52:10 51°19.65 2°56.772 72 11.9 70 -999
2011-09-19 08:54:10 51°19.776 2°57.355 68.2 11.5 66 -999
2011-09-19 08:56:10 51°19.878 2°57.946 76.2 11.59 73 -999
2011-09-19 08:58:10 51°19.975 2°58.527 73.7 11.69 76 -999
2011-09-19 09:00:10 51°20.074 2°59.11 75.7 11.19 79 -999
2011-09-19 09:02:10 51°20.17 2°59.699 74.7 11.4 78 -999
2011-09-19 09:04:10 51°20.268 3°0.271 71.4 11.19 71 -999
2011-09-19 09:06:10 51°20.368 3°0.845 72.7 11.5 75 -999
2011-09-19 09:08:10 51°20.464 3°1.415 75 11 77 -999
2011-09-19 09:10:10 51°20.555 3°1.995 76.5 11 76 -999
2011-09-19 09:12:10 51°20.619 3°2.35 70.7 4.2 70 -999
2011-09-19 09:14:10 51°20.681 3°2.432 71.9 2.39 79 -999
2011-09-19 09:16:10 51°20.722 3°2.551 46.3 2.2 39 -999
2011-09-19 09:18:10 51°20.728 3°2.527 9 0.8 246 -999
2011-09-19 09:20:10 51°20.707 3°2.497 22.1 1 220 -999
2011-09-19 09:22:10 51°20.681 3°2.46 34.2 1.1 226 -999
2011-09-19 09:24:10 51°20.655 3°2.422 38.6 1 216 -999
2011-09-19 09:26:10 51°20.629 3°2.383 31.8 1 220 -999
2011-09-19 09:28:10 51°20.602 3°2.346 29.6 1.1 226 -999
2011-09-19 09:30:10 51°20.648 3°2.38 34.2 4.29 24 -999
2011-09-19 09:32:10 51°20.764 3°2.61 68 7.5 71 -999
2011-09-19 09:34:10 51°20.867 3°3.124 74.4 10.69 74 -999
2011-09-19 09:36:10 51°20.979 3°3.65 69 10.4 67 -999
2011-09-19 09:38:10 51°21.093 3°4.178 72.7 10.5 72 -999
2011-09-19 09:40:10 51°21.237 3°4.688 62.5 10.59 64 -999
2011-09-19 09:42:10 51°21.404 3°5.197 67.2 10.69 58 -999
2011-09-19 09:44:10 51°21.567 3°5.697 64.2 10.69 65 -999
2011-09-19 09:46:10 51°21.741 3°6.201 67.2 10.9 62 -999
2011-09-19 09:48:10 51°21.911 3°6.723 62.7 10.9 60 -999
2011-09-19 09:50:10 51°22.025 3°7.264 76.7 10.9 79 -999
2011-09-19 09:52:10 51°22.118 3°7.818 71.7 10.59 72 -999
2011-09-19 09:54:10 51°22.167 3°8.385 80.5 10.5 82 -999
2011-09-19 09:56:10 51°22.226 3°8.927 80 10.59 80 -999
2011-09-19 09:58:10 51°22.265 3°9.49 81.7 10.59 85 -999
2011-09-19 10:00:10 51°22.312 3°10.059 80.9 10.8 83 -999
2011-09-19 10:02:10 51°22.352 3°10.642 82.9 11.09 82 -999
2011-09-19 10:04:10 51°22.393 3°11.219 81.5 11 86 -999
2011-09-19 10:06:10 51°22.434 3°11.798 87 10.8 85 -999
2011-09-19 10:08:10 51°22.486 3°12.379 77.4 10.8 76 -999
2011-09-19 10:10:10 51°22.55 3°12.862 76.5 6.59 76 -999
2011-09-19 10:12:10 51°22.582 3°13.1 78.9 4.5 81 -999
2011-09-19 10:14:10 51°22.616 3°13.264 47.7 1.69 32 -999
2011-09-19 10:16:10 51°22.625 3°13.245 15.9 0.5 277 -999
2011-09-19 10:18:10 51°22.621 3°13.21 9.9 0.69 256 -999
2011-09-19 10:20:10 51°22.615 3°13.18 14.8 0.69 251 -999
2011-09-19 10:22:10 51°22.607 3°13.15 15.8 0.69 247 -999
2011-09-19 10:24:10 51°22.593 3°13.118 26.8 0.59 239 -999
2011-09-19 10:26:10 51°22.583 3°13.086 30.5 0.69 244 -999
2011-09-19 10:28:10 51°22.645 3°13.011 324.5 4.79 309 -999
2011-09-19 10:30:10 51°22.784 3°12.595 305.6 10.9 300 -999
2011-09-19 10:32:10 51°22.993 3°12.01 303.6 13.19 298 -999
2011-09-19 10:34:10 51°23.205 3°11.412 304.1 13.09 298 -999
2011-09-19 10:36:10 51°23.422 3°10.818 304.8 12.8 298 -999
2011-09-19 10:38:10 51°23.636 3°10.204 302.6 13.09 297 -999
2011-09-19 10:40:10 51°23.95 3°9.806 338.5 12.4 331 -999
2011-09-19 10:42:10 51°24.315 3°9.485 341.8 12.4 335 -999
2011-09-19 10:44:10 51°24.591 3°9.056 289.6 12.5 282 -999
2011-09-19 10:46:10 51°24.608 3°8.388 284 12.69 281 -999
2011-09-19 10:48:10 51°24.695 3°7.73 283.8 12.59 282 -999
2011-09-19 10:50:10 51°24.851 3°7.118 298.8 12.19 297 -999
2011-09-19 10:52:10 51°25.178 3°6.813 347.3 11.4 350 -999
2011-09-19 10:54:10 51°25.496 3°7.087 42.8 11.5 45 -999
2011-09-19 10:56:10 51°25.766 3°7.504 46.5 11.3 46 -999
2011-09-19 10:58:10 51°26.046 3°7.89 37.7 11.3 39 -999
2011-09-19 11:00:10 51°26.347 3°8.235 35.2 10.09 36 -999
2011-09-19 11:02:10 51°26.442 3°8.341 28.3 0.8 49 -999
2011-09-19 11:04:10 51°26.425 3°8.346 15.6 0.59 175 -999
2011-09-19 11:06:10 51°26.4 3°8.349 12.5 0.8 177 -999
2011-09-19 11:08:10 51°26.372 3°8.351 15.1 0.9 178 -999
2011-09-19 11:10:10 51°26.342 3°8.355 21.8 0.9 174 -999
2011-09-19 11:12:10 51°26.31 3°8.359 25.8 0.9 174 -999
2011-09-19 11:14:10 51°26.279 3°8.363 24.1 1 180 -999
2011-09-19 11:16:10 51°26.288 3°8.374 6.4 2.2   -999
2011-09-19 11:18:10 51°26.398 3°8.151 304.1 7.9 296 -999
2011-09-19 11:20:10 51°26.526 3°7.745 305.6 8.69 298 -999
2011-09-19 11:22:10 51°26.704 3°7.192 301.1 12.09 296 -999
2011-09-19 11:24:10 51°26.891 3°6.627 301.8 12 298 -999
2011-09-19 11:26:10 51°27.077 3°6.071 302.6 12 298 -999
2011-09-19 11:28:10 51°27.265 3°5.495 304.1 12.19 298 -999
2011-09-19 11:30:10 51°27.458 3°4.929 302.3 12.19 296 -999
2011-09-19 11:32:10 51°27.672 3°4.383 307.8 12.09 301 -999
2011-09-19 11:34:10 51°27.905 3°3.861 317.8 12 312 -999
2011-09-19 11:36:10 51°28.182 3°3.402 319.1 11.8 315 -999
2011-09-19 11:38:10 51°28.275 3°3.393 53.2 1.6 65 -999
2011-09-19 11:40:10 51°28.289 3°3.449 40.1 0.4 149 -999
2011-09-19 11:42:10 51°28.274 3°3.44 15.5 0.69 204 -999
2011-09-19 11:44:10 51°28.251 3°3.422 3 0.9 204 -999
2011-09-19 11:46:10 51°28.223 3°3.403 356.3 1 204 -999
2011-09-19 11:48:10 51°28.191 3°3.387 357.3 1 191 -999
2011-09-19 11:50:10 51°28.156 3°3.375 8.5 1 190 -999
2011-09-19 11:52:10 51°28.121 3°3.363 16.1 1.19 198 -999
2011-09-19 11:54:10 51°28.087 3°3.349 13.9 1 194 -999
2011-09-19 11:56:10 51°28.055 3°3.338 12.5 1 187 -999
2011-09-19 11:58:10 51°28.023 3°3.327 4.5 1 200 -999
2011-09-19 13:00:10 51°18.529 2°52.621 214.1 12.9 214 -999
2011-09-19 13:02:10 51°18.148 2°52.31 203.4 12.69 204 -999
2011-09-19 13:04:10 51°17.764 2°52.021 207 12.69 204 -999
2011-09-19 13:06:10 51°17.372 2°51.736 204.9 12.8 204 -999
2011-09-19 13:08:10 51°16.993 2°51.435 209 12.8 209 -999
2011-09-19 13:10:10 51°16.626 2°51.099 209.4 12.5 208 -999
2011-09-19 13:12:10 51°16.26 2°50.765 209.4 12.69 208 -999
2011-09-19 13:14:10 51°15.896 2°50.409 218 12.69 219 -999
2011-09-19 13:16:10 51°15.588 2°49.982 221.1 12.5 220 -999
2011-09-19 13:18:10 51°15.297 2°49.503 232.4 12.4 233 -999
2011-09-19 13:20:10 51°15.074 2°48.955 243.1 12.3 244 -999
2011-09-19 13:22:10 51°14.894 2°48.381 241 12.3 242 -999
2011-09-19 13:24:10 51°14.703 2°47.807 241 12.3 240 -999
2011-09-19 13:26:10 51°14.521 2°47.214 244.3 12.3 244 -999
2011-09-19 13:28:10 51°14.33 2°46.642 241.3 12.19 241 -999
2011-09-19 13:30:10 51°14.136 2°46.079 233.5 12.09 231 -999
2011-09-19 13:32:10 51°13.817 2°45.697 214.8 12.19 215 -999
2011-09-19 13:34:10 51°13.452 2°45.399 207.1 12.4 206 -999
2011-09-19 13:36:10 51°13.145 2°44.981 230.5 12 229 -999
2011-09-19 13:38:10 51°12.87 2°44.507 224.1 12.09 227 -999
2011-09-19 13:40:10 51°12.587 2°44.057 226.9 12 225 -999
2011-09-19 13:42:10 51°12.315 2°43.596 227.6 11.8 229 -999
2011-09-19 13:44:10 51°12.036 2°43.151 223.6 11.9 223 -999
2011-09-19 13:46:10 51°11.75 2°42.723 225.4 11.59 224 -999
2011-09-19 13:48:10 51°11.466 2°42.307 210.9 11.69 202 -999
2011-09-19 13:50:10 51°11.104 2°42.329 178.5 8.69 175 -999
2011-09-19 13:52:10 51°11.04 2°42.216 279.3 3 287 -999
2011-09-19 13:54:10 51°11.09 2°42.026 278.6 4.29 285 -999
2011-09-19 13:56:10 51°11.121 2°42.003 353.6 1.19 79 -999
2011-09-19 13:58:10 51°11.13 2°42.074 25.6 1.39 77 -999
2011-09-19 14:00:10 51°11.143 2°42.15 17.5 1.39 74 -999
2011-09-19 14:02:10 51°11.156 2°42.222 359.6 1.39 73 -999
2011-09-19 14:04:10 51°11.169 2°42.299 348.3 1.5 75 -999
2011-09-19 14:06:10 51°11.18 2°42.378 348.5 1.5 76 -999
2011-09-19 14:08:10 51°11.192 2°42.464 355.3 1.69 82 -999
2011-09-19 14:10:10 51°11.212 2°42.553 12.8 2.6 48 -999
2011-09-19 14:12:10 51°11.4 2°42.909 49.1 12.4 56 -999
2011-09-19 14:14:10 51°11.456 2°43.588 86.7 13.3 88 -999
2011-09-19 14:16:10 51°11.529 2°44.298 86 13.5 84 -999
2011-09-19 14:18:10 51°11.583 2°44.999 80 13.69 80 -999
2011-09-19 14:20:10 51°11.678 2°45.708 79 13.4 79 -999
2011-09-19 14:22:10 51°11.762 2°46.409 79.9 13.4 80 -999
2011-09-19 14:24:10 51°11.852 2°47.105 77.5 13.4 75 -999
2011-09-19 14:26:10 51°12 2°47.771 63.3 13.3 63 -999
2011-09-19 14:28:10 51°12.21 2°48.4 63.2 13.59 65 -999
2011-09-19 14:30:10 51°12.413 2°49.048 65.9 13.59 63 -999
2011-09-19 14:32:10 51°12.638 2°49.667 56.1 13.59 56 -999
2011-09-19 14:34:10 51°12.865 2°50.294 62.5 13.59 63 -999
2011-09-19 14:36:10 51°13.102 2°50.919 60.6 13.8 61 -999
2011-09-19 14:38:10 51°13.332 2°51.529 59.6 13.69 60 -999
2011-09-19 14:40:10 51°13.577 2°52.155 56.8 13.8 57 -999
2011-09-19 14:42:10 51°13.836 2°52.755 48.7 13.8 51 -999
2011-09-19 14:44:10 51°14.121 2°53.333 52.2 13.9 47 -999
2011-09-19 14:46:10 51°14.38 2°53.946 60.2 13.9 61 -999
2011-09-19 14:48:10 51°14.624 2°54.527 58.2 13.3 59 -999
2011-09-19 14:50:10 51°14.489 2°55.092 146.4 11.9 142 -999
2011-09-19 14:52:10 51°14.202 2°55.357 148.9 8.4 151 -999
2011-09-19 14:54:10 51°13.98 2°55.524 155 7.59 157 -999